sensor_id;sensor_type;location;lat;lon;timestamp;P1;durP1;ratioP1;P2;durP2;ratioP2
65936;SDS011;52707;52.086;5.418;2022-12-29T14:49:14;2.35;;;1.10;;
65936;SDS011;52707;52.086;5.418;2022-12-29T14:51:41;6.15;;;2.05;;
65936;SDS011;52707;52.086;5.418;2022-12-29T14:56:56;10.23;;;2.38;;
65936;SDS011;52707;52.086;5.418;2022-12-29T14:59:23;9.20;;;1.90;;
65936;SDS011;52707;52.086;5.418;2022-12-29T15:01:51;9.75;;;2.20;;
65936;SDS011;52707;52.086;5.418;2022-12-29T15:04:19;8.43;;;2.08;;
65936;SDS011;52707;52.086;5.418;2022-12-29T15:06:47;9.57;;;2.50;;
65936;SDS011;52707;52.086;5.418;2022-12-29T15:11:51;9.70;;;2.10;;
65936;SDS011;52707;52.086;5.418;2022-12-29T15:16:53;12.55;;;2.88;;
65936;SDS011;52707;52.086;5.418;2022-12-29T15:19:23;16.02;;;3.08;;
65936;SDS011;52707;52.086;5.418;2022-12-29T15:21:49;14.10;;;2.35;;
65936;SDS011;52707;52.086;5.418;2022-12-29T15:24:16;8.68;;;2.08;;
65936;SDS011;52707;52.086;5.418;2022-12-29T15:26:44;17.50;;;2.33;;
65936;SDS011;52707;52.086;5.418;2022-12-29T15:29:45;17.88;;;3.50;;
65936;SDS011;52707;52.086;5.418;2022-12-29T15:32:39;16.40;;;2.78;;
65936;SDS011;52707;52.086;5.418;2022-12-29T15:34:57;15.38;;;2.67;;
65936;SDS011;52707;52.086;5.418;2022-12-29T15:37:28;10.05;;;2.60;;
65936;SDS011;52707;52.086;5.418;2022-12-29T15:44:54;14.75;;;3.30;;
65936;SDS011;52707;52.086;5.418;2022-12-29T15:47:35;20.35;;;3.40;;
65936;SDS011;52707;52.086;5.418;2022-12-29T15:50:24;17.42;;;3.45;;
65936;SDS011;52707;52.086;5.418;2022-12-29T15:52:48;9.10;;;2.30;;
65936;SDS011;52707;52.086;5.418;2022-12-29T15:55:19;9.82;;;2.25;;
65936;SDS011;52707;52.086;5.418;2022-12-29T15:57:46;12.63;;;2.85;;
65936;SDS011;52707;52.086;5.418;2022-12-29T16:00:22;17.73;;;3.40;;
65936;SDS011;52707;52.086;5.418;2022-12-29T16:02:49;19.42;;;3.00;;
65936;SDS011;52707;52.086;5.418;2022-12-29T16:05:16;9.85;;;3.03;;
65936;SDS011;52707;52.086;5.418;2022-12-29T16:07:57;21.67;;;3.42;;
65936;SDS011;52707;52.086;5.418;2022-12-29T16:10:29;19.10;;;2.92;;
65936;SDS011;52707;52.086;5.418;2022-12-29T16:13:03;15.68;;;2.80;;
65936;SDS011;52707;52.086;5.418;2022-12-29T16:15:30;15.00;;;2.63;;
65936;SDS011;52707;52.086;5.418;2022-12-29T16:17:57;13.80;;;2.70;;
65936;SDS011;52707;52.086;5.418;2022-12-29T16:20:24;13.40;;;2.25;;
65936;SDS011;52707;52.086;5.418;2022-12-29T16:22:59;15.25;;;2.40;;
65936;SDS011;52707;52.086;5.418;2022-12-29T16:25:29;10.57;;;2.03;;
65936;SDS011;52707;52.086;5.418;2022-12-29T16:28:00;15.00;;;3.20;;
65936;SDS011;52707;52.086;5.418;2022-12-29T16:30:28;9.43;;;2.07;;
65936;SDS011;52707;52.086;5.418;2022-12-29T16:33:00;13.40;;;2.78;;
65936;SDS011;52707;52.086;5.418;2022-12-29T16:35:28;15.00;;;2.78;;
65936;SDS011;52707;52.086;5.418;2022-12-29T16:38:15;17.38;;;2.75;;
65936;SDS011;52707;52.086;5.418;2022-12-29T16:43:21;4.90;;;1.67;;
65936;SDS011;52707;52.086;5.418;2022-12-29T16:48:21;8.82;;;2.05;;
65936;SDS011;52707;52.086;5.418;2022-12-29T16:50:48;11.90;;;2.38;;
65936;SDS011;52707;52.086;5.418;2022-12-29T16:53:23;12.45;;;2.45;;
65936;SDS011;52707;52.086;5.418;2022-12-29T16:55:53;12.80;;;2.50;;
65936;SDS011;52707;52.086;5.418;2022-12-29T16:58:22;11.93;;;2.58;;
65936;SDS011;52707;52.086;5.418;2022-12-29T17:00:49;9.82;;;1.80;;
65936;SDS011;52707;52.086;5.418;2022-12-29T17:03:15;8.75;;;1.90;;
65936;SDS011;52707;52.086;5.418;2022-12-29T17:05:42;10.70;;;2.30;;
65936;SDS011;52707;52.086;5.418;2022-12-29T17:08:18;13.57;;;2.70;;
65936;SDS011;52707;52.086;5.418;2022-12-29T17:13:34;13.52;;;2.08;;
65936;SDS011;52707;52.086;5.418;2022-12-29T17:16:00;11.63;;;2.50;;
65936;SDS011;52707;52.086;5.418;2022-12-29T17:18:27;15.93;;;3.88;;
65936;SDS011;52707;52.086;5.418;2022-12-29T17:20:53;7.32;;;1.80;;
65936;SDS011;52707;52.086;5.418;2022-12-29T17:23:19;12.80;;;2.00;;
65936;SDS011;52707;52.086;5.418;2022-12-29T17:25:52;13.73;;;2.85;;
65936;SDS011;52707;52.086;5.418;2022-12-29T17:28:20;12.65;;;3.67;;
65936;SDS011;52707;52.086;5.418;2022-12-29T17:30:47;19.98;;;5.47;;
65936;SDS011;52707;52.086;5.418;2022-12-29T17:33:16;20.77;;;3.05;;
65936;SDS011;52707;52.086;5.418;2022-12-29T17:35:42;9.93;;;2.65;;
65936;SDS011;52707;52.086;5.418;2022-12-29T17:38:19;10.43;;;2.95;;
65936;SDS011;52707;52.086;5.418;2022-12-29T17:40:45;14.63;;;3.25;;
65936;SDS011;52707;52.086;5.418;2022-12-29T17:43:12;15.32;;;2.60;;
65936;SDS011;52707;52.086;5.418;2022-12-29T17:45:39;15.38;;;3.35;;
65936;SDS011;52707;52.086;5.418;2022-12-29T17:48:13;9.10;;;2.85;;
65936;SDS011;52707;52.086;5.418;2022-12-29T17:50:39;22.83;;;4.53;;
65936;SDS011;52707;52.086;5.418;2022-12-29T17:53:09;14.63;;;5.60;;
65936;SDS011;52707;52.086;5.418;2022-12-29T17:55:36;20.30;;;3.17;;
65936;SDS011;52707;52.086;5.418;2022-12-29T17:58:25;11.40;;;2.50;;
65936;SDS011;52707;52.086;5.418;2022-12-29T18:00:51;13.43;;;2.60;;
65936;SDS011;52707;52.086;5.418;2022-12-29T18:03:28;11.43;;;1.95;;
65936;SDS011;52707;52.086;5.418;2022-12-29T18:05:56;12.32;;;2.42;;
65936;SDS011;52707;52.086;5.418;2022-12-29T18:08:22;10.50;;;2.65;;
65936;SDS011;52707;52.086;5.418;2022-12-29T18:10:52;12.93;;;2.90;;
65936;SDS011;52707;52.086;5.418;2022-12-29T18:15:45;23.20;;;3.15;;
65936;SDS011;52707;52.086;5.418;2022-12-29T18:18:13;17.02;;;3.08;;
65936;SDS011;52707;52.086;5.418;2022-12-29T18:20:40;17.10;;;3.55;;
65936;SDS011;52707;52.086;5.418;2022-12-29T18:23:18;19.58;;;2.72;;
65936;SDS011;52707;52.086;5.418;2022-12-29T18:25:46;11.18;;;2.17;;
65936;SDS011;52707;52.086;5.418;2022-12-29T18:28:14;16.95;;;3.33;;
65936;SDS011;52707;52.086;5.418;2022-12-29T18:30:40;11.98;;;2.88;;
65936;SDS011;52707;52.086;5.418;2022-12-29T18:33:09;15.20;;;2.80;;
65936;SDS011;52707;52.086;5.418;2022-12-29T18:35:56;20.25;;;2.85;;
65936;SDS011;52707;52.086;5.418;2022-12-29T18:38:23;19.58;;;2.50;;
65936;SDS011;52707;52.086;5.418;2022-12-29T18:40:49;12.57;;;2.85;;
65936;SDS011;52707;52.086;5.418;2022-12-29T18:43:16;15.90;;;3.05;;
65936;SDS011;52707;52.086;5.418;2022-12-29T18:45:43;17.83;;;3.40;;
65936;SDS011;52707;52.086;5.418;2022-12-29T18:48:13;17.58;;;2.85;;
65936;SDS011;52707;52.086;5.418;2022-12-29T18:50:40;23.15;;;3.65;;
65936;SDS011;52707;52.086;5.418;2022-12-29T18:53:11;26.55;;;5.28;;
65936;SDS011;52707;52.086;5.418;2022-12-29T18:55:40;14.20;;;3.58;;
65936;SDS011;52707;52.086;5.418;2022-12-29T18:58:06;23.92;;;3.55;;
65936;SDS011;52707;52.086;5.418;2022-12-29T19:00:33;24.80;;;3.67;;
65936;SDS011;52707;52.086;5.418;2022-12-29T19:02:59;16.30;;;2.65;;
65936;SDS011;52707;52.086;5.418;2022-12-29T19:05:30;19.10;;;3.10;;
65936;SDS011;52707;52.086;5.418;2022-12-29T19:07:57;26.58;;;3.65;;
65936;SDS011;52707;52.086;5.418;2022-12-29T19:10:24;29.05;;;3.90;;
65936;SDS011;52707;52.086;5.418;2022-12-29T19:12:50;25.85;;;3.22;;
65936;SDS011;52707;52.086;5.418;2022-12-29T19:17:43;15.95;;;3.30;;
65936;SDS011;52707;52.086;5.418;2022-12-29T19:20:15;19.00;;;3.40;;
65936;SDS011;52707;52.086;5.418;2022-12-29T19:22:46;24.98;;;4.07;;
65936;SDS011;52707;52.086;5.418;2022-12-29T19:25:13;23.67;;;4.47;;
65936;SDS011;52707;52.086;5.418;2022-12-29T19:27:39;28.50;;;4.88;;
65936;SDS011;52707;52.086;5.418;2022-12-29T19:30:05;21.27;;;4.70;;
65936;SDS011;52707;52.086;5.418;2022-12-29T19:32:32;18.23;;;4.25;;
65936;SDS011;52707;52.086;5.418;2022-12-29T19:34:58;21.20;;;5.15;;
65936;SDS011;52707;52.086;5.418;2022-12-29T19:37:24;18.27;;;3.45;;
65936;SDS011;52707;52.086;5.418;2022-12-29T19:39:51;25.30;;;4.65;;
65936;SDS011;52707;52.086;5.418;2022-12-29T19:42:18;26.20;;;4.45;;
65936;SDS011;52707;52.086;5.418;2022-12-29T19:44:44;23.58;;;3.55;;
65936;SDS011;52707;52.086;5.418;2022-12-29T19:47:10;28.33;;;4.30;;
65936;SDS011;52707;52.086;5.418;2022-12-29T19:49:39;18.30;;;3.17;;
65936;SDS011;52707;52.086;5.418;2022-12-29T19:52:05;31.02;;;4.90;;
65936;SDS011;52707;52.086;5.418;2022-12-29T19:54:31;18.27;;;3.25;;
65936;SDS011;52707;52.086;5.418;2022-12-29T19:56:57;21.27;;;3.88;;
65936;SDS011;52707;52.086;5.418;2022-12-29T19:59:24;26.30;;;4.07;;
65936;SDS011;52707;52.086;5.418;2022-12-29T20:01:50;20.65;;;3.42;;
65936;SDS011;52707;52.086;5.418;2022-12-29T20:04:17;25.75;;;3.67;;
65936;SDS011;52707;52.086;5.418;2022-12-29T20:06:43;21.48;;;4.53;;
65936;SDS011;52707;52.086;5.418;2022-12-29T20:09:10;25.27;;;4.47;;
65936;SDS011;52707;52.086;5.418;2022-12-29T20:11:36;18.10;;;4.20;;
65936;SDS011;52707;52.086;5.418;2022-12-29T20:14:02;25.95;;;4.30;;
65936;SDS011;52707;52.086;5.418;2022-12-29T20:16:28;22.98;;;4.20;;
65936;SDS011;52707;52.086;5.418;2022-12-29T20:18:55;21.38;;;3.88;;
65936;SDS011;52707;52.086;5.418;2022-12-29T20:21:22;25.73;;;4.38;;
65936;SDS011;52707;52.086;5.418;2022-12-29T20:23:49;24.55;;;4.13;;
65936;SDS011;52707;52.086;5.418;2022-12-29T20:26:22;20.83;;;4.07;;
65936;SDS011;52707;52.086;5.418;2022-12-29T20:28:49;33.45;;;7.00;;
65936;SDS011;52707;52.086;5.418;2022-12-29T20:31:17;21.02;;;6.93;;
65936;SDS011;52707;52.086;5.418;2022-12-29T20:33:45;30.15;;;4.20;;
65936;SDS011;52707;52.086;5.418;2022-12-29T20:36:13;23.10;;;4.55;;
65936;SDS011;52707;52.086;5.418;2022-12-29T20:38:43;34.78;;;5.32;;
65936;SDS011;52707;52.086;5.418;2022-12-29T20:41:11;27.73;;;3.92;;
65936;SDS011;52707;52.086;5.418;2022-12-29T20:43:38;24.77;;;4.68;;
65936;SDS011;52707;52.086;5.418;2022-12-29T20:46:05;28.40;;;4.85;;
65936;SDS011;52707;52.086;5.418;2022-12-29T20:48:31;29.23;;;3.97;;
65936;SDS011;52707;52.086;5.418;2022-12-29T20:50:58;19.02;;;4.63;;
65936;SDS011;52707;52.086;5.418;2022-12-29T20:53:26;32.95;;;4.82;;
65936;SDS011;52707;52.086;5.418;2022-12-29T20:55:52;27.90;;;4.53;;
65936;SDS011;52707;52.086;5.418;2022-12-29T20:58:19;20.52;;;4.13;;
65936;SDS011;52707;52.086;5.418;2022-12-29T21:00:50;25.92;;;4.72;;
65936;SDS011;52707;52.086;5.418;2022-12-29T21:03:16;24.77;;;4.18;;
65936;SDS011;52707;52.086;5.418;2022-12-29T21:05:42;35.90;;;4.55;;
65936;SDS011;52707;52.086;5.418;2022-12-29T21:08:09;27.52;;;4.53;;
65936;SDS011;52707;52.086;5.418;2022-12-29T21:10:36;28.27;;;5.80;;
65936;SDS011;52707;52.086;5.418;2022-12-29T21:13:02;22.15;;;4.07;;
65936;SDS011;52707;52.086;5.418;2022-12-29T21:15:30;24.48;;;4.90;;
65936;SDS011;52707;52.086;5.418;2022-12-29T21:17:56;28.17;;;4.07;;
65936;SDS011;52707;52.086;5.418;2022-12-29T21:20:23;25.83;;;4.03;;
65936;SDS011;52707;52.086;5.418;2022-12-29T21:22:57;23.40;;;4.50;;
65936;SDS011;52707;52.086;5.418;2022-12-29T21:25:25;22.67;;;3.80;;
65936;SDS011;52707;52.086;5.418;2022-12-29T21:27:51;31.50;;;5.25;;
65936;SDS011;52707;52.086;5.418;2022-12-29T21:30:18;30.90;;;4.93;;
65936;SDS011;52707;52.086;5.418;2022-12-29T21:32:44;27.48;;;4.32;;
65936;SDS011;52707;52.086;5.418;2022-12-29T21:35:10;28.10;;;4.00;;
65936;SDS011;52707;52.086;5.418;2022-12-29T21:37:36;19.60;;;3.75;;
65936;SDS011;52707;52.086;5.418;2022-12-29T21:40:03;26.10;;;4.22;;
65936;SDS011;52707;52.086;5.418;2022-12-29T21:42:30;23.90;;;4.68;;
65936;SDS011;52707;52.086;5.418;2022-12-29T21:44:56;20.67;;;3.70;;
65936;SDS011;52707;52.086;5.418;2022-12-29T21:47:46;25.13;;;3.60;;
65936;SDS011;52707;52.086;5.418;2022-12-29T21:50:30;26.92;;;3.95;;
65936;SDS011;52707;52.086;5.418;2022-12-29T21:52:57;18.65;;;3.50;;
65936;SDS011;52707;52.086;5.418;2022-12-29T21:55:23;18.85;;;3.85;;
65936;SDS011;52707;52.086;5.418;2022-12-29T21:57:49;24.48;;;3.88;;
65936;SDS011;52707;52.086;5.418;2022-12-29T22:00:34;25.83;;;3.65;;
65936;SDS011;52707;52.086;5.418;2022-12-29T22:03:19;16.42;;;3.28;;
65936;SDS011;52707;52.086;5.418;2022-12-29T22:06:08;16.20;;;3.58;;
65936;SDS011;52707;52.086;5.418;2022-12-29T22:08:53;23.83;;;4.18;;
65936;SDS011;52707;52.086;5.418;2022-12-29T22:11:38;26.75;;;3.90;;
65936;SDS011;52707;52.086;5.418;2022-12-29T22:14:22;18.23;;;3.35;;
65936;SDS011;52707;52.086;5.418;2022-12-29T22:16:49;23.77;;;4.28;;
